Time;durP1;ratioP1;P1;durP2;ratioP2;P2;SDS_P1;SDS_P2;PMS_P1;PMS_P2;Temp;Humidity;BMP_temperature;BMP_pressure;BME280_temperature;BME280_humidity;BME280_pressure;Samples;Min_cycle;Max_cycle;Signal;HPM_P1;HPM_P2
2021/08/25 00:00:00;;;;;;;2.47;0.88;;;;;;;19.73;55.39;101489.91;5072838;28;20059;-67
2021/08/25 00:02:25;;;;;;;0.95;0.63;;;;;;;19.76;55.67;101475.94;5072817;28;20052;-67
2021/08/25 00:04:51;;;;;;;1.70;0.85;;;;;;;19.73;54.88;101481.72;5072961;28;20104;-66
2021/08/25 00:07:16;;;;;;;1.77;0.98;;;;;;;19.68;54.90;101462.28;5072801;28;20439;-66
2021/08/25 00:09:42;;;;;;;2.47;0.80;;;;;;;19.75;55.95;101460.59;5073028;28;20043;-66
2021/08/25 00:12:10;;;;;;;1.92;0.77;;;;;;;19.73;56.03;101463.50;5074103;28;20107;-67
2021/08/25 00:14:37;;;;;;;1.77;0.70;;;;;;;19.77;55.15;101442.19;5072831;28;20107;-66
2021/08/25 00:17:03;;;;;;;2.15;0.95;;;;;;;19.63;56.10;101445.53;5072638;28;20025;-67
2021/08/25 00:19:28;;;;;;;1.80;0.73;;;;;;;19.77;55.02;101439.44;5073037;28;20439;-66
2021/08/25 00:21:54;;;;;;;1.58;0.80;;;;;;;19.73;57.16;101435.34;5072649;28;20027;-67
2021/08/25 00:24:20;;;;;;;3.67;1.02;;;;;;;19.77;55.36;101417.63;5072850;28;20379;-66
2021/08/25 00:26:46;;;;;;;4.00;0.82;;;;;;;19.66;54.72;101404.31;5056042;28;20519;-66
2021/08/25 00:29:13;;;;;;;2.17;0.75;;;;;;;19.67;55.46;101404.16;5072767;28;20112;-67
2021/08/25 00:31:38;;;;;;;2.50;1.00;;;;;;;19.63;54.77;101388.25;5072615;28;20052;-66
2021/08/25 00:34:03;;;;;;;1.98;0.52;;;;;;;19.66;55.35;101377.03;5072681;28;20052;-66
2021/08/25 00:36:28;;;;;;;1.85;0.75;;;;;;;19.64;55.37;101362.69;5072807;28;20091;-66
2021/08/25 00:38:54;;;;;;;3.22;0.80;;;;;;;19.72;55.42;101357.25;5073966;28;20059;-68
2021/08/25 00:41:19;;;;;;;4.03;1.08;;;;;;;19.62;55.21;101346.50;5072594;28;20518;-67
2021/08/25 00:43:44;;;;;;;1.58;0.93;;;;;;;19.67;55.76;101322.31;5072540;28;20489;-68
2021/08/25 00:46:11;;;;;;;2.15;1.05;;;;;;;19.72;55.48;101319.06;5059608;28;20535;-67
2021/08/25 00:48:37;;;;;;;1.42;0.65;;;;;;;19.63;56.09;101303.69;5061249;28;20041;-67
2021/08/25 00:51:02;;;;;;;1.25;0.50;;;;;;;19.65;54.86;101290.75;5065063;28;20044;-67
2021/08/25 00:53:27;;;;;;;2.35;1.00;;;;;;;19.59;55.49;101281.38;5057468;28;20021;-68
2021/08/25 00:55:55;;;;;;;3.22;0.98;;;;;;;19.60;55.34;101276.78;5052512;28;20036;-68
2021/08/25 00:58:20;;;;;;;3.40;1.02;;;;;;;19.61;56.16;101281.19;5052290;28;20072;-66
2021/08/25 01:00:53;;;;;;;1.65;0.73;;;;;;;19.61;56.81;101267.56;5052139;28;20028;-68
2021/08/25 01:03:25;;;;;;;2.63;0.68;;;;;;;19.55;55.06;101270.97;5052533;28;20025;-67
2021/08/25 01:05:51;;;;;;;2.17;0.95;;;;;;;19.49;55.41;101265.16;5052390;28;20051;-68
2021/08/25 01:08:17;;;;;;;2.38;0.70;;;;;;;19.56;55.48;101264.50;5054591;28;20025;-66
2021/08/25 01:10:42;;;;;;;2.97;1.15;;;;;;;19.52;55.23;101264.81;5055628;28;20036;-67
2021/08/25 01:13:10;;;;;;;3.10;0.82;;;;;;;19.53;55.02;101257.47;5055644;28;20056;-67
2021/08/25 01:15:38;;;;;;;1.83;0.68;;;;;;;19.57;55.99;101263.47;5055845;28;20017;-67
2021/08/25 01:18:10;;;;;;;1.60;0.88;;;;;;;19.62;54.76;101258.34;5055675;28;20025;-67
2021/08/25 01:20:36;;;;;;;1.13;0.40;;;;;;;19.51;55.79;101246.75;5055882;28;20078;-67
2021/08/25 01:23:02;;;;;;;1.63;0.80;;;;;;;19.47;55.71;101242.63;5058341;28;20040;-66
2021/08/25 01:25:33;;;;;;;3.78;0.85;;;;;;;19.46;55.91;101227.28;5055880;28;20028;-67
2021/08/25 01:28:02;;;;;;;1.92;0.80;;;;;;;19.47;56.24;101220.81;5055579;28;20048;-67
2021/08/25 01:30:31;;;;;;;2.35;1.17;;;;;;;19.55;55.92;101220.00;5055833;28;20029;-69
2021/08/25 01:32:59;;;;;;;1.95;0.60;;;;;;;19.57;54.77;101219.84;5055394;28;20020;-67
2021/08/25 01:35:38;;;;;;;1.88;0.82;;;;;;;19.57;55.23;101206.22;5055784;28;20021;-67
2021/08/25 01:38:07;;;;;;;1.95;0.60;;;;;;;19.56;55.62;101208.09;5055371;28;20083;-67
2021/08/25 01:40:35;;;;;;;2.47;0.93;;;;;;;19.51;55.63;101194.94;5055188;28;20025;-67
2021/08/25 01:43:02;;;;;;;1.92;0.70;;;;;;;19.55;55.59;101194.63;5075405;28;20032;-66
2021/08/25 01:45:28;;;;;;;2.47;0.88;;;;;;;19.52;55.54;101188.47;5063878;28;20039;-67
2021/08/25 01:47:53;;;;;;;3.15;0.98;;;;;;;19.53;55.72;101194.75;5075056;28;20024;-68
2021/08/25 01:50:19;;;;;;;3.10;0.90;;;;;;;19.62;55.11;101177.38;5061153;28;20032;-66
2021/08/25 01:52:45;;;;;;;1.35;0.57;;;;;;;19.51;54.78;101159.47;5075225;28;20532;-67
2021/08/25 01:55:10;;;;;;;1.13;0.40;;;;;;;19.52;55.25;101165.78;5075113;28;20108;-65
2021/08/25 01:57:35;;;;;;;1.50;0.60;;;;;;;19.48;55.40;101167.13;5074809;28;20116;-66
2021/08/25 02:00:01;;;;;;;2.55;0.43;;;;;;;19.60;54.87;101156.78;5074625;28;20062;-65
2021/08/25 02:02:26;;;;;;;0.95;0.45;;;;;;;19.50;55.82;101163.22;5058534;28;20458;-66
2021/08/25 02:04:51;;;;;;;1.60;0.45;;;;;;;19.51;55.52;101156.75;5054938;28;20032;-66
2021/08/25 02:07:17;;;;;;;1.48;0.60;;;;;;;19.52;55.39;101155.72;5054715;28;20056;-66
2021/08/25 02:09:42;;;;;;;2.35;0.80;;;;;;;19.43;55.70;101145.84;5054780;28;20070;-66
2021/08/25 02:12:08;;;;;;;1.30;0.60;;;;;;;19.53;54.92;101143.81;5054673;28;20039;-68
2021/08/25 02:14:42;;;;;;;2.10;0.80;;;;;;;19.47;56.25;101130.84;5068009;28;20033;-65
2021/08/25 02:17:07;;;;;;;1.73;0.70;;;;;;;19.53;56.01;101130.16;5066982;28;20061;-67
2021/08/25 02:19:33;;;;;;;2.28;0.52;;;;;;;19.50;55.57;101129.66;5054045;28;20401;-65
2021/08/25 02:21:58;;;;;;;2.70;0.75;;;;;;;19.46;56.28;101106.47;5054311;28;20013;-65
2021/08/25 02:24:24;;;;;;;1.27;0.50;;;;;;;19.44;55.43;101103.06;5054684;28;20047;-67
2021/08/25 02:26:49;;;;;;;2.10;0.50;;;;;;;19.39;55.67;101095.41;5054569;28;20107;-66
2021/08/25 02:29:15;;;;;;;1.40;0.93;;;;;;;19.49;55.45;101098.81;5054247;28;20017;-67
2021/08/25 02:31:40;;;;;;;3.13;0.60;;;;;;;19.49;55.26;101096.09;5055614;28;20036;-66
2021/08/25 02:34:05;;;;;;;2.03;0.60;;;;;;;19.53;55.09;101086.53;5054338;28;20381;-67
2021/08/25 02:36:31;;;;;;;1.52;0.50;;;;;;;19.55;55.00;101077.34;5054373;28;20141;-66
2021/08/25 02:38:56;;;;;;;1.17;0.40;;;;;;;19.50;56.01;101081.44;5053828;28;20029;-67
2021/08/25 02:41:22;;;;;;;1.40;0.63;;;;;;;19.44;55.70;101068.47;5067251;28;20005;-67
2021/08/25 02:43:48;;;;;;;2.47;0.75;;;;;;;19.46;55.64;101052.78;5044468;28;20037;-67
2021/08/25 02:46:13;;;;;;;2.17;0.60;;;;;;;19.37;56.17;101048.38;5057812;28;20013;-66
2021/08/25 02:48:39;;;;;;;2.33;0.80;;;;;;;19.45;56.50;101045.63;5054439;28;20025;-67
2021/08/25 02:51:04;;;;;;;1.83;0.65;;;;;;;19.44;55.63;101043.94;5053958;28;20028;-68
2021/08/25 02:53:29;;;;;;;0.40;0.32;;;;;;;19.48;55.52;100979.88;5054019;28;20023;-66
2021/08/25 02:55:55;;;;;;;1.10;0.40;;;;;;;19.50;55.01;100983.25;5053555;28;20430;-68
2021/08/25 02:58:20;;;;;;;2.58;0.52;;;;;;;19.50;54.94;100966.91;5053614;28;20045;-67
2021/08/25 03:00:45;;;;;;;1.67;0.50;;;;;;;19.49;54.94;101035.25;5060148;28;20033;-68
2021/08/25 03:03:11;;;;;;;2.40;0.60;;;;;;;19.46;55.79;101019.22;5053833;28;20064;-67
2021/08/25 03:05:36;;;;;;;2.08;0.57;;;;;;;19.44;55.57;101013.94;5036052;28;20025;-68
2021/08/25 03:08:02;;;;;;;1.52;0.60;;;;;;;19.38;56.73;101003.75;5053659;28;20061;-68
2021/08/25 03:10:36;;;;;;;1.75;0.60;;;;;;;19.42;55.89;101007.81;5076284;28;20012;-68
2021/08/25 03:13:01;;;;;;;;;;;;;;;19.48;55.04;100984.44;5078005;28;20013;-67
2021/08/25 03:15:26;;;;;;;0.90;0.40;;;;;;;19.47;55.50;100975.41;5053462;28;20270;-68
2021/08/25 03:17:52;;;;;;;0.50;0.40;;;;;;;19.49;55.24;100964.34;5055160;28;20059;-67
2021/08/25 03:20:17;;;;;;;2.38;0.52;;;;;;;19.47;54.73;100956.31;5053527;28;20455;-67
2021/08/25 03:22:42;;;;;;;2.00;0.45;;;;;;;19.47;54.76;100945.41;5053601;28;20031;-67
2021/08/25 03:25:09;;;;;;;1.73;0.47;;;;;;;19.47;55.10;100933.66;5053164;28;20066;-67
2021/08/25 03:27:35;;;;;;;0.30;0.20;;;;;;;19.51;54.49;100933.16;5053479;28;20021;-68
2021/08/25 03:30:01;;;;;;;1.45;0.40;;;;;;;19.45;55.29;100936.56;5053048;28;20116;-67
2021/08/25 03:32:27;;;;;;;0.75;0.40;;;;;;;19.46;54.33;100927.34;5054039;28;20129;-67
2021/08/25 03:34:52;;;;;;;2.80;0.50;;;;;;;19.44;54.96;100923.13;5053347;28;20496;-66
2021/08/25 03:37:18;;;;;;;1.27;0.40;;;;;;;19.42;55.42;100908.81;5053069;28;20025;-67
2021/08/25 03:39:43;;;;;;;0.93;0.47;;;;;;;19.42;54.26;100912.38;5053145;28;20025;-67
2021/08/25 03:42:09;;;;;;;1.00;0.30;;;;;;;19.42;55.08;100906.94;5053074;28;20032;-68
2021/08/25 03:44:36;;;;;;;0.50;0.40;;;;;;;19.49;54.41;100909.81;5067825;28;20513;-67
2021/08/25 03:47:02;;;;;;;0.77;0.40;;;;;;;19.42;54.18;100898.75;5072393;28;20091;-67
2021/08/25 03:49:28;;;;;;;1.35;0.43;;;;;;;19.47;53.67;100892.75;5073150;28;20461;-68
2021/08/25 03:51:53;;;;;;;0.28;0.28;;;;;;;19.47;54.97;100896.34;5072899;28;20031;-68
2021/08/25 03:54:18;;;;;;;0.88;0.30;;;;;;;19.46;53.66;100888.34;5073175;28;20039;-67
2021/08/25 03:56:44;;;;;;;1.00;0.30;;;;;;;19.45;54.93;100887.50;5072966;28;20066;-68
2021/08/25 03:59:09;;;;;;;1.20;0.30;;;;;;;19.42;55.23;100876.94;5072586;28;20402;-66
2021/08/25 04:01:34;;;;;;;1.42;0.50;;;;;;;19.55;53.91;100872.84;5074256;28;20028;-67
2021/08/25 04:04:05;;;;;;;1.17;0.30;;;;;;;20.41;51.17;100873.44;5072827;28;20024;-66
2021/08/25 04:06:31;;;;;;;0.38;0.20;;;;;;;20.69;51.59;100865.50;5072873;28;20051;-67
2021/08/25 04:08:56;;;;;;;0.60;0.30;;;;;;;20.95;50.83;100850.53;5054918;28;20025;-66
2021/08/25 04:11:21;;;;;;;2.17;0.50;;;;;;;21.13;51.58;100844.69;5073083;28;20051;-65
2021/08/25 04:13:46;;;;;;;0.50;0.22;;;;;;;21.24;50.13;100836.91;5087884;28;20039;-63
2021/08/25 04:16:12;;;;;;;0.68;0.30;;;;;;;21.38;50.19;100837.06;5083688;28;20033;-65
2021/08/25 04:18:38;;;;;;;1.25;0.28;;;;;;;21.39;50.75;100836.03;5072590;28;20473;-66
2021/08/25 04:21:03;;;;;;;1.13;0.47;;;;;;;21.53;50.94;100818.75;5072688;28;20056;-65
2021/08/25 04:23:28;;;;;;;1.02;0.40;;;;;;;21.58;51.23;100816.25;5073130;28;20086;-67
2021/08/25 04:25:54;;;;;;;0.95;0.22;;;;;;;21.59;51.61;100809.75;5072356;28;20486;-66
2021/08/25 04:28:19;;;;;;;0.82;0.20;;;;;;;21.64;51.20;100801.81;5072892;28;20024;-68
2021/08/25 04:30:44;;;;;;;0.68;0.20;;;;;;;21.66;50.99;100799.72;5057577;28;20055;-66
2021/08/25 04:33:10;;;;;;;0.68;0.20;;;;;;;21.71;52.29;100797.25;5072612;28;20645;-68
2021/08/25 04:35:35;;;;;;;0.75;0.20;;;;;;;21.77;51.80;100799.22;5073080;28;20031;-67
2021/08/25 04:38:00;;;;;;;1.75;0.38;;;;;;;21.80;51.86;100798.81;5072306;28;20104;-68
2021/08/25 04:40:26;;;;;;;2.45;0.40;;;;;;;21.83;52.36;100798.41;5072776;28;20036;-67
2021/08/25 04:46:17;;;;;;;1.25;0.10;;;;;;;21.86;52.33;100762.47;5061552;28;20131;-67
2021/08/25 04:48:43;;;;;;;0.95;0.20;;;;;;;21.89;53.26;100758.50;5056554;28;20033;-66
2021/08/25 04:51:11;;;;;;;0.98;0.45;;;;;;;21.85;52.36;100763.53;5056310;28;20486;-68
2021/08/25 04:53:37;;;;;;;0.90;0.30;;;;;;;21.95;53.02;100754.13;5056000;28;20036;-67
2021/08/25 04:56:02;;;;;;;1.08;0.20;;;;;;;21.94;52.93;100750.53;5056236;28;20025;-69
2021/08/25 04:58:28;;;;;;;1.15;0.30;;;;;;;22.01;52.21;100734.19;5056011;28;20509;-67
2021/08/25 05:00:53;;;;;;;0.55;0.15;;;;;;;22.00;52.46;100732.47;5056921;28;20040;-68
2021/08/25 05:03:18;;;;;;;1.00;0.30;;;;;;;22.02;53.69;100725.78;5038595;28;20359;-67
2021/08/25 05:05:44;;;;;;;1.25;0.30;;;;;;;22.03;53.46;100737.56;5056130;28;20041;-68
2021/08/25 05:08:40;;;;;;;0.80;0.47;;;;;;;22.06;53.52;100723.50;5070395;28;20039;-67
2021/08/25 05:11:07;;;;;;;1.05;0.43;;;;;;;22.10;53.38;100722.06;4955759;29;20508;-67
2021/08/25 05:13:33;;;;;;;0.93;0.28;;;;;;;22.08;53.46;100713.19;4955661;29;20043;-68
2021/08/25 05:16:00;;;;;;;0.73;0.30;;;;;;;22.15;53.89;100705.88;4955980;29;20510;-67
2021/08/25 05:18:25;;;;;;;0.65;0.20;;;;;;;22.09;54.00;100709.41;4939140;29;20078;-68
2021/08/25 05:20:50;;;;;;;0.95;0.47;;;;;;;22.05;53.69;100716.34;4955569;29;20043;-67
2021/08/25 05:23:16;;;;;;;1.17;0.28;;;;;;;22.11;53.69;100701.84;4955629;29;20083;-68
2021/08/25 05:25:41;;;;;;;1.20;0.20;;;;;;;22.07;54.41;100714.25;4955508;29;20092;-68
2021/08/25 05:28:06;;;;;;;3.20;0.20;;;;;;;22.07;53.48;100700.56;4959156;29;20027;-68
2021/08/25 05:30:32;;;;;;;1.42;0.50;;;;;;;22.17;54.58;100684.59;4955227;29;20042;-66
2021/08/25 05:32:57;;;;;;;1.08;0.30;;;;;;;22.17;54.15;100690.09;4954952;29;20045;-67
2021/08/25 05:35:23;;;;;;;0.63;0.30;;;;;;;22.17;54.00;100687.34;4960268;29;20039;-62
2021/08/25 05:38:07;;;;;;;0.65;0.20;;;;;;;22.11;53.84;100683.53;4981102;29;20054;-64
2021/08/25 05:40:33;;;;;;;3.40;0.52;;;;;;;22.16;54.80;100674.72;4955196;29;20051;-64
2021/08/25 05:42:58;;;;;;;0.52;0.25;;;;;;;22.16;54.08;100655.53;4955227;29;20422;-66
2021/08/25 05:45:23;;;;;;;0.77;0.20;;;;;;;22.18;54.80;100645.25;4953101;28;20054;-65
2021/08/25 05:47:49;;;;;;;0.28;0.10;;;;;;;22.28;53.67;100632.03;5018403;28;20037;-66
2021/08/25 05:50:15;;;;;;;2.67;0.30;;;;;;;22.13;54.81;100647.72;5060558;28;20028;-66
2021/08/25 05:52:40;;;;;;;0.30;0.10;;;;;;;22.25;55.02;100642.56;5054936;28;20032;-67
2021/08/25 05:55:06;;;;;;;0.47;0.28;;;;;;;22.26;54.06;100647.81;5053921;28;20023;-67
2021/08/25 05:57:31;;;;;;;1.85;0.43;;;;;;;22.26;54.70;100639.59;5055553;28;20067;-67
2021/08/25 05:59:57;;;;;;;0.10;0.05;;;;;;;22.25;54.72;100643.41;5053685;28;20033;-68
2021/08/25 06:02:23;;;;;;;0.77;0.32;;;;;;;22.23;55.82;100648.22;5054559;28;20065;-67
2021/08/25 06:04:49;;;;;;;1.60;0.30;;;;;;;22.19;54.76;100658.75;5046487;28;20006;-67
2021/08/25 06:08:05;;;;;;;2.00;0.22;;;;;;;22.29;54.32;100655.63;5079306;28;20027;-63
2021/08/25 06:10:31;;;;;;;0.45;0.20;;;;;;;22.33;54.62;100650.59;5046066;28;20033;-65
2021/08/25 06:12:56;;;;;;;0.88;0.30;;;;;;;22.26;54.92;100642.34;5051958;28;20036;-66
2021/08/25 06:15:22;;;;;;;0.17;0.10;;;;;;;22.32;54.41;100647.00;5053453;28;20028;-66
2021/08/25 06:17:47;;;;;;;0.40;0.20;;;;;;;22.32;55.08;100649.75;5049429;28;20064;-67
2021/08/25 06:20:13;;;;;;;1.85;0.32;;;;;;;22.33;54.64;100651.44;5040058;28;20038;-66
2021/08/25 06:22:39;;;;;;;1.73;0.30;;;;;;;22.31;55.34;100648.06;5052683;28;20029;-67
2021/08/25 06:25:05;;;;;;;0.90;0.30;;;;;;;22.34;54.68;100647.69;5036979;28;20085;-65
2021/08/25 06:27:30;;;;;;;1.65;0.20;;;;;;;22.35;55.54;100643.88;5035139;28;20549;-67
2021/08/25 06:29:55;;;;;;;0.75;0.28;;;;;;;22.37;55.13;100641.78;5046623;28;20473;-66
2021/08/25 06:32:21;;;;;;;0.30;0.20;;;;;;;22.35;54.53;100654.84;5041857;28;20044;-68
2021/08/25 06:34:46;;;;;;;2.20;0.60;;;;;;;22.34;54.56;100646.78;5035219;28;20033;-69
2021/08/25 06:37:12;;;;;;;1.60;0.40;;;;;;;22.37;54.71;100652.75;5032024;28;20516;-70
2021/08/25 06:39:38;;;;;;;1.38;0.32;;;;;;;22.38;55.48;100632.53;5040744;28;20033;-69
2021/08/25 06:42:03;;;;;;;0.57;0.20;;;;;;;22.48;55.84;100638.44;5020931;28;20067;-67
2021/08/25 06:44:29;;;;;;;2.08;0.40;;;;;;;22.45;56.07;100636.13;5044948;28;20024;-69
2021/08/25 06:46:54;;;;;;;1.52;0.13;;;;;;;22.53;56.04;100640.59;5039198;28;20036;-67
2021/08/25 06:49:20;;;;;;;0.82;0.28;;;;;;;22.51;55.97;100627.13;5045963;28;20339;-70
2021/08/25 06:51:45;;;;;;;0.68;0.30;;;;;;;22.46;55.84;100628.75;5026945;28;20028;-68
2021/08/25 06:54:10;;;;;;;1.00;0.52;;;;;;;22.44;55.76;100611.69;5037342;28;20116;-69
2021/08/25 06:56:36;;;;;;;0.60;0.22;;;;;;;22.48;55.72;100622.00;5052499;28;20033;-68
2021/08/25 06:59:01;;;;;;;0.63;0.20;;;;;;;22.49;55.87;100612.75;5049839;28;20033;-69
2021/08/25 07:01:26;;;;;;;1.05;0.30;;;;;;;22.54;56.35;100614.91;5051988;28;20418;-64
2021/08/25 07:03:52;;;;;;;0.60;0.30;;;;;;;22.55;55.18;100615.75;5056597;28;20025;-65
2021/08/25 07:06:19;;;;;;;1.00;0.45;;;;;;;22.51;56.66;100621.63;5052739;28;20672;-63
2021/08/25 07:08:45;;;;;;;2.17;0.30;;;;;;;22.47;56.05;100603.88;5051567;28;20016;-64
2021/08/25 07:11:10;;;;;;;0.70;0.45;;;;;;;22.54;56.34;100603.09;5053200;28;20036;-63
2021/08/25 07:13:36;;;;;;;1.17;0.20;;;;;;;22.51;55.06;100599.72;5052966;28;20100;-65
2021/08/25 07:16:01;;;;;;;1.30;0.52;;;;;;;22.55;55.72;100599.31;5052601;28;20107;-64
2021/08/25 07:18:26;;;;;;;0.52;0.30;;;;;;;22.52;56.78;100604.16;5049607;28;20056;-65
2021/08/25 07:20:52;;;;;;;0.88;0.28;;;;;;;22.57;56.29;100588.97;5053236;28;20033;-64
2021/08/25 07:23:17;;;;;;;0.80;0.30;;;;;;;22.55;55.11;100588.34;5049885;28;20031;-65
2021/08/25 07:25:43;;;;;;;0.10;0.10;;;;;;;22.50;54.87;100588.94;5065979;28;20029;-65
2021/08/25 07:28:08;;;;;;;0.65;0.20;;;;;;;22.50;55.62;100594.41;5056475;28;20021;-66
2021/08/25 07:30:33;;;;;;;2.13;0.30;;;;;;;22.57;55.20;100586.25;5052990;28;20381;-64
2021/08/25 07:32:59;;;;;;;0.60;0.10;;;;;;;22.56;55.06;100584.56;5040355;28;20385;-67
2021/08/25 07:35:29;;;;;;;0.40;0.30;;;;;;;22.61;55.28;100596.56;5038845;28;20654;-66
2021/08/25 07:37:54;;;;;;;0.40;0.20;;;;;;;22.62;55.55;100591.94;5034994;28;20029;-68
2021/08/25 07:40:20;;;;;;;2.10;0.30;;;;;;;22.46;56.50;100591.25;5048003;28;20420;-63
2021/08/25 07:42:45;;;;;;;4.28;0.38;;;;;;;22.67;55.08;100581.19;5037908;28;20061;-64
2021/08/25 07:45:11;;;;;;;0.32;0.20;;;;;;;22.63;55.68;100574.44;5040160;28;20041;-64
2021/08/25 07:47:38;;;;;;;0.63;0.22;;;;;;;22.62;55.42;100564.53;5035885;28;20507;-65
2021/08/25 07:50:05;;;;;;;0.63;0.10;;;;;;;22.68;55.51;100561.84;5049762;28;20399;-67
2021/08/25 07:52:30;;;;;;;1.13;0.30;;;;;;;22.73;55.31;100558.47;5066358;28;20047;-66
2021/08/25 07:54:55;;;;;;;1.80;0.50;;;;;;;22.73;55.63;100558.47;5061480;28;20461;-66
2021/08/25 07:57:21;;;;;;;0.85;0.20;;;;;;;22.76;54.74;100547.09;5072420;28;20044;-68
2021/08/25 07:59:46;;;;;;;0.88;0.40;;;;;;;22.69;55.37;100555.31;5073054;28;20038;-67
2021/08/25 08:02:11;;;;;;;0.60;0.20;;;;;;;22.69;55.95;100552.56;5072966;28;20025;-68
2021/08/25 08:04:36;;;;;;;0.75;0.25;;;;;;;22.70;55.65;100553.41;5075134;28;20009;-67
2021/08/25 08:07:08;;;;;;;3.05;0.45;;;;;;;22.70;55.49;100553.41;5075935;28;20052;-68
2021/08/25 08:09:33;;;;;;;1.45;0.30;;;;;;;22.71;55.32;100538.66;5052232;28;20025;-68
2021/08/25 08:11:58;;;;;;;1.55;0.47;;;;;;;22.74;56.08;100543.72;5052216;28;20717;-68
2021/08/25 08:14:25;;;;;;;4.07;1.00;;;;;;;22.73;55.68;100534.66;5052206;28;20041;-67
2021/08/25 08:16:55;;;;;;;0.88;0.25;;;;;;;22.70;55.25;100539.72;5052838;28;20021;-67
2021/08/25 08:19:22;;;;;;;1.52;0.52;;;;;;;22.71;55.83;100520.31;5056282;28;20075;-67
2021/08/25 08:21:49;;;;;;;2.22;0.30;;;;;;;22.74;55.10;100522.63;5057909;28;20659;-66
2021/08/25 08:24:15;;;;;;;1.17;0.35;;;;;;;22.74;55.04;100521.78;5048490;28;20033;-67
2021/08/25 08:26:40;;;;;;;0.60;0.22;;;;;;;22.67;56.00;100537.34;5052648;28;20040;-66
2021/08/25 08:29:06;;;;;;;0.38;0.20;;;;;;;22.77;55.52;100529.59;5076726;28;20016;-67
2021/08/25 08:31:32;;;;;;;1.98;0.30;;;;;;;22.74;55.08;100527.28;5072067;28;20021;-66
2021/08/25 08:33:57;;;;;;;0.70;0.30;;;;;;;22.72;55.10;100527.47;5066347;28;20115;-67
2021/08/25 08:36:23;;;;;;;0.68;0.35;;;;;;;22.72;55.24;100526.63;5041242;28;20237;-67
2021/08/25 08:38:48;;;;;;;1.27;0.43;;;;;;;22.86;54.93;100520.16;5036505;28;20045;-67
2021/08/25 08:41:13;;;;;;;0.52;0.22;;;;;;;22.79;55.46;100513.78;5041719;28;20059;-68
2021/08/25 08:43:43;;;;;;;1.45;0.50;;;;;;;22.75;55.36;100512.53;5063651;28;20595;-67
2021/08/25 08:46:16;;;;;;;0.20;0.20;;;;;;;22.74;55.12;100500.72;5076646;28;20449;-68
2021/08/25 08:48:42;;;;;;;1.38;0.25;;;;;;;22.75;55.08;100507.03;5076460;28;20032;-67
2021/08/25 08:51:14;;;;;;;0.63;0.30;;;;;;;22.78;55.62;100499.25;5062907;28;20119;-69
2021/08/25 08:53:40;;;;;;;0.40;0.30;;;;;;;22.73;55.55;100499.03;5069167;28;20029;-67
2021/08/25 08:56:06;;;;;;;0.88;0.20;;;;;;;22.80;55.29;100496.28;5050834;28;20012;-67
2021/08/25 08:58:31;;;;;;;1.00;0.10;;;;;;;22.75;55.14;100496.91;5073686;28;20044;-67
2021/08/25 09:00:56;;;;;;;1.25;0.30;;;;;;;22.79;55.92;100489.13;5087913;28;20019;-68
2021/08/25 09:03:26;;;;;;;1.77;0.60;;;;;;;22.72;55.76;100480.06;5062071;28;20099;-68
2021/08/25 09:05:54;;;;;;;1.85;0.43;;;;;;;22.78;54.54;100479.22;5020309;28;20095;-68
2021/08/25 09:08:26;;;;;;;5.97;0.63;;;;;;;22.72;55.89;100488.28;5046561;28;20378;-68
2021/08/25 09:11:01;;;;;;;2.38;0.50;;;;;;;22.67;56.27;100488.03;5037276;28;20053;-67
2021/08/25 09:13:36;;;;;;;0.30;0.10;;;;;;;22.66;56.00;100478.97;5040224;28;20096;-69
2021/08/25 09:16:02;;;;;;;1.05;0.30;;;;;;;22.66;55.40;100480.88;5063915;28;20066;-68
2021/08/25 09:18:28;;;;;;;0.70;0.30;;;;;;;22.73;55.38;100473.53;5043455;28;20032;-70
2021/08/25 09:20:53;;;;;;;0.50;0.28;;;;;;;22.72;55.58;100474.56;5059860;28;20468;-68
2021/08/25 09:23:20;;;;;;;0.93;0.20;;;;;;;22.67;55.36;100472.44;5047133;28;20342;-69
2021/08/25 09:26:08;;;;;;;2.92;0.52;;;;;;;22.71;55.72;100473.75;5055798;28;20024;-68
2021/08/25 09:28:36;;;;;;;1.42;0.50;;;;;;;22.76;55.75;100467.63;5055817;28;20033;-69
2021/08/25 09:31:08;;;;;;;2.47;0.55;;;;;;;22.74;56.32;100467.00;5054282;28;20029;-70
2021/08/25 09:34:00;;;;;;;1.05;0.20;;;;;;;22.71;55.74;100478.38;5041578;28;20048;-68
2021/08/25 09:36:26;;;;;;;1.55;0.20;;;;;;;22.68;55.69;100479.63;5076861;28;20481;-70
2021/08/25 09:38:54;;;;;;;0.30;0.13;;;;;;;22.69;55.02;100475.00;5077251;28;20038;-69
2021/08/25 09:41:20;;;;;;;0.40;0.17;;;;;;;22.70;56.25;100480.28;5075764;28;20035;-71
2021/08/25 09:43:48;;;;;;;2.50;0.60;;;;;;;22.68;56.83;100478.78;5075414;28;20020;-70
2021/08/25 09:46:19;;;;;;;2.15;0.30;;;;;;;22.66;55.64;100472.66;5075310;28;20032;-70
2021/08/25 09:48:51;;;;;;;1.60;0.30;;;;;;;22.63;56.33;100475.81;5073820;28;20020;-69
2021/08/25 09:51:22;;;;;;;0.98;0.40;;;;;;;22.67;56.25;100466.97;5040337;28;20424;-69
2021/08/25 09:53:51;;;;;;;0.88;0.40;;;;;;;22.74;55.48;100483.44;5035527;28;20610;-69
2021/08/25 09:56:34;;;;;;;1.08;0.38;;;;;;;22.72;55.90;100486.38;5035176;28;20104;-68
2021/08/25 09:59:01;;;;;;;0.40;0.10;;;;;;;22.73;55.88;100487.22;5034811;28;20041;-69
2021/08/25 10:01:27;;;;;;;0.82;0.35;;;;;;;22.69;56.43;100489.53;5047192;28;20055;-69
2021/08/25 10:03:53;;;;;;;0.90;0.20;;;;;;;22.65;55.87;100490.16;5074951;28;20532;-69
2021/08/25 10:06:48;;;;;;;2.65;0.43;;;;;;;22.70;55.28;100495.88;5091730;28;20019;-69
2021/08/25 10:09:14;;;;;;;3.35;0.60;;;;;;;22.71;55.70;100494.81;5092682;28;20077;-70
2021/08/25 10:12:01;;;;;;;2.58;0.30;;;;;;;22.69;56.20;100499.66;5074977;28;20060;-70
2021/08/25 10:14:30;;;;;;;1.35;0.35;;;;;;;22.68;56.43;100495.22;5056960;28;20061;-69
2021/08/25 10:16:55;;;;;;;0.60;0.10;;;;;;;22.66;54.94;100491.84;5074654;28;20024;-70
2021/08/25 10:19:41;;;;;;;2.20;0.40;;;;;;;22.75;55.17;100490.59;5077932;28;20388;-68
2021/08/25 10:22:15;;;;;;;1.27;0.30;;;;;;;22.73;55.89;100481.75;5050302;28;20029;-70
2021/08/25 10:24:52;;;;;;;0.73;0.47;;;;;;;22.70;55.00;100471.22;5047228;28;20127;-69
2021/08/25 10:27:18;;;;;;;1.55;0.30;;;;;;;22.67;56.49;100480.66;5054558;28;20028;-70
2021/08/25 10:30:02;;;;;;;0.40;0.30;;;;;;;22.76;56.45;100481.31;5054719;28;20025;-69
2021/08/25 10:32:28;;;;;;;1.35;0.30;;;;;;;22.65;55.80;100473.72;5054557;28;20044;-70
2021/08/25 10:35:26;;;;;;;0.50;0.20;;;;;;;22.74;55.09;100483.44;5054670;28;20445;-71
2021/08/25 10:38:12;;;;;;;1.20;0.43;;;;;;;22.77;55.86;100480.25;5054267;28;20025;-69
2021/08/25 10:40:37;;;;;;;2.45;0.75;;;;;;;22.77;55.26;100481.09;5065531;28;20056;-69
2021/08/25 10:43:03;;;;;;;1.60;0.30;;;;;;;22.73;55.64;100482.59;5054305;28;20025;-69
2021/08/25 10:45:38;;;;;;;0.82;0.30;;;;;;;22.73;55.48;100488.06;5060958;28;20028;-70
2021/08/25 10:48:04;;;;;;;0.88;0.40;;;;;;;22.74;55.13;100495.22;5073898;28;20408;-69
2021/08/25 10:51:01;;;;;;;0.32;0.17;;;;;;;22.76;55.35;100486.81;5074831;28;20054;-70
2021/08/25 10:53:30;;;;;;;0.38;0.28;;;;;;;22.76;55.69;100475.84;4973417;28;20118;-69
2021/08/25 10:56:13;;;;;;;1.15;0.47;;;;;;;22.75;56.02;100485.97;4973038;28;20049;-69
2021/08/25 10:59:03;;;;;;;2.20;0.32;;;;;;;22.71;55.01;100484.69;4972920;28;20455;-70
2021/08/25 11:01:30;;;;;;;0.77;0.20;;;;;;;22.77;56.35;100483.00;4973096;28;20519;-68
2021/08/25 11:03:59;;;;;;;2.50;0.55;;;;;;;22.71;55.39;100468.25;4965562;28;20423;-69
2021/08/25 11:06:32;;;;;;;0.35;0.20;;;;;;;22.77;56.36;100463.81;4952165;28;20488;-68
2021/08/25 11:09:23;;;;;;;1.27;0.45;;;;;;;22.79;55.72;100465.28;4944600;28;20054;-69
2021/08/25 11:12:18;;;;;;;1.33;0.43;;;;;;;22.77;55.14;100461.94;4937590;28;20046;-68
2021/08/25 11:14:48;;;;;;;1.08;0.43;;;;;;;22.78;55.44;100460.03;4890740;29;20616;-62
2021/08/25 11:17:15;;;;;;;0.30;0.10;;;;;;;22.77;55.35;100469.31;4886138;29;20244;-65
2021/08/25 11:19:52;;;;;;;0.32;0.30;;;;;;;22.76;55.91;100462.13;4896458;29;20059;-66
2021/08/25 11:22:27;;;;;;;1.02;0.20;;;;;;;22.78;55.94;100451.81;4894767;29;20045;-65
2021/08/25 11:25:01;;;;;;;1.95;0.38;;;;;;;22.78;55.68;100446.31;4891930;29;20048;-64
2021/08/25 11:27:38;;;;;;;0.73;0.30;;;;;;;22.76;56.09;100451.19;4889772;29;20434;-67
2021/08/25 11:30:26;;;;;;;1.13;0.30;;;;;;;22.77;55.97;100447.38;4968521;28;20030;-67